createdAt,value
2023-05-14T00:00:01.732Z,90.83
2023-05-14T00:01:01.741Z,91.14
2023-05-14T00:02:01.889Z,91.55
2023-05-14T00:03:01.811Z,91.44
2023-05-14T00:04:01.741Z,91.55
2023-05-14T00:05:01.673Z,92.06
2023-05-14T00:06:01.704Z,91.65
2023-05-14T00:07:01.669Z,91.86
2023-05-14T00:08:02.265Z,91.49
2023-05-14T00:09:01.665Z,91.75
2023-05-14T00:10:01.728Z,92.31
2023-05-14T00:11:01.629Z,92.51
2023-05-14T00:12:01.645Z,92.72
2023-05-14T00:13:01.637Z,91.80
2023-05-14T00:14:01.794Z,92.27
2023-05-14T00:15:01.638Z,91.80
2023-05-14T00:16:01.625Z,92.31
2023-05-14T00:17:01.601Z,93.07
2023-05-14T00:18:01.665Z,93.38
2023-05-14T00:19:01.646Z,93.59
2023-05-14T00:20:01.621Z,93.73
2023-05-14T00:21:01.578Z,93.93
2023-05-14T00:22:01.555Z,94.34
2023-05-14T00:23:01.551Z,94.04
2023-05-14T00:24:01.539Z,94.14
2023-05-14T00:25:01.566Z,94.14
2023-05-14T00:26:01.537Z,94.04
2023-05-14T00:27:01.545Z,94.55
2023-05-14T00:28:01.532Z,94.45
2023-05-14T00:29:01.558Z,94.24
2023-05-14T00:30:01.539Z,94.04
2023-05-14T00:31:01.529Z,94.04
2023-05-14T00:32:01.483Z,94.45
2023-05-14T00:33:01.621Z,94.24
2023-05-14T00:34:01.501Z,94.45
2023-05-14T00:35:01.465Z,95.01
2023-05-14T00:36:01.459Z,94.96
2023-05-14T00:37:01.447Z,94.65
2023-05-14T00:38:01.437Z,94.45
2023-05-14T00:39:01.458Z,94.65
2023-05-14T00:40:01.439Z,94.76
2023-05-14T00:41:01.435Z,94.55
2023-05-14T00:42:01.410Z,94.65
2023-05-14T00:43:01.529Z,94.65
2023-05-14T00:44:01.429Z,94.96
2023-05-14T00:45:01.400Z,94.96
2023-05-14T00:46:01.433Z,95.27
2023-05-14T00:47:01.420Z,95.17
2023-05-14T00:48:01.436Z,95.06
2023-05-14T00:49:01.382Z,95.06
2023-05-14T00:50:01.343Z,94.96
2023-05-14T00:51:01.345Z,95.42
2023-05-14T00:52:01.325Z,95.27
2023-05-14T00:53:01.358Z,95.01
2023-05-14T00:54:01.345Z,95.37
2023-05-14T00:55:01.320Z,95.10
2023-05-14T00:56:02.309Z,94.85
2023-05-14T00:57:01.292Z,94.96
2023-05-14T00:58:01.309Z,95.10
2023-05-14T00:59:01.276Z,94.34
2023-05-14T01:00:01.283Z,94.70
2023-05-14T01:01:01.281Z,94.39
2023-05-14T01:02:01.275Z,95.01
2023-05-14T01:03:01.489Z,95.01
2023-05-14T01:04:01.336Z,95.01
2023-05-14T01:05:01.238Z,95.83
2023-05-14T01:06:01.216Z,95.52
2023-05-14T01:07:01.245Z,95.56
2023-05-14T01:08:01.200Z,95.62
2023-05-14T01:09:01.247Z,95.72
2023-05-14T01:10:01.220Z,95.10
2023-05-14T01:11:01.178Z,95.67
2023-05-14T01:12:01.214Z,95.46
2023-05-14T01:13:01.170Z,96.34
2023-05-14T01:14:01.164Z,95.52
2023-05-14T01:15:01.192Z,95.42
2023-05-14T01:16:01.199Z,95.42
2023-05-14T01:17:01.156Z,95.93
2023-05-14T01:18:01.177Z,95.42
2023-05-14T01:19:01.224Z,95.62
2023-05-14T01:20:01.125Z,95.52
2023-05-14T01:21:01.139Z,95.52
2023-05-14T01:22:01.096Z,95.46
2023-05-14T01:23:01.089Z,95.62
2023-05-14T01:24:01.153Z,95.10
2023-05-14T01:25:01.082Z,95.67
2023-05-14T01:26:01.089Z,95.46
2023-05-14T01:27:01.070Z,96.22
2023-05-14T01:28:01.059Z,96.64
2023-05-14T01:29:01.047Z,96.73
2023-05-14T01:30:01.043Z,97.25
2023-05-14T01:31:01.051Z,97.45
2023-05-14T01:32:01.052Z,97.36
2023-05-14T01:33:01.042Z,97.45
2023-05-14T01:34:01.007Z,97.31
2023-05-14T01:35:01.029Z,97.31
2023-05-14T01:36:01.024Z,97.10
2023-05-14T01:37:00.988Z,97.10
2023-05-14T01:38:01.018Z,96.90
2023-05-14T01:39:00.972Z,97.16
2023-05-14T01:40:01.019Z,96.55
2023-05-14T01:41:00.965Z,96.44
2023-05-14T01:42:00.954Z,96.75
2023-05-14T01:43:00.967Z,96.75
2023-05-14T01:44:00.924Z,96.39
2023-05-14T01:45:00.939Z,96.03
2023-05-14T01:46:00.996Z,96.59
2023-05-14T01:47:00.898Z,96.39
2023-05-14T01:48:00.942Z,96.80
2023-05-14T01:49:00.909Z,96.39
2023-05-14T01:50:00.954Z,96.39
2023-05-14T01:51:00.874Z,96.59
2023-05-14T01:52:00.876Z,96.48
2023-05-14T01:53:00.854Z,96.48
2023-05-14T01:54:00.850Z,96.39
2023-05-14T01:55:00.866Z,96.48
2023-05-14T01:56:00.837Z,96.59
2023-05-14T01:57:00.819Z,96.39
2023-05-14T01:58:00.822Z,96.80
2023-05-14T01:59:00.841Z,96.18
2023-05-14T02:00:00.831Z,96.48
2023-05-14T02:01:00.830Z,96.48
2023-05-14T02:02:00.961Z,96.55
2023-05-14T02:03:00.806Z,96.14
2023-05-14T02:04:00.862Z,96.23
2023-05-14T02:05:00.754Z,96.23
2023-05-14T02:06:00.748Z,96.44
2023-05-14T02:07:00.747Z,96.34
2023-05-14T02:08:00.743Z,96.14
2023-05-14T02:09:00.748Z,96.23
2023-05-14T02:10:01.728Z,96.23
2023-05-14T02:11:00.709Z,95.78
2023-05-14T02:12:00.713Z,95.72
2023-05-14T02:13:00.745Z,95.93
2023-05-14T02:14:00.720Z,95.72
2023-05-14T02:15:00.688Z,95.62
2023-05-14T02:16:00.722Z,95.42
2023-05-14T02:17:00.667Z,95.57
2023-05-14T02:18:00.708Z,95.52
2023-05-14T02:19:00.711Z,95.37
2023-05-14T02:20:00.662Z,95.62
2023-05-14T02:21:00.646Z,95.47
2023-05-14T02:22:00.633Z,95.89
2023-05-14T02:23:00.664Z,95.27
2023-05-14T02:24:00.639Z,96.03
2023-05-14T02:25:00.603Z,95.21
2023-05-14T02:26:00.611Z,95.87
2023-05-14T02:27:00.623Z,95.67
2023-05-14T02:28:00.610Z,95.36
2023-05-14T02:29:00.590Z,95.92
2023-05-14T02:30:00.640Z,96.22
2023-05-14T02:31:00.612Z,96.58
2023-05-14T02:32:00.586Z,96.89
2023-05-14T02:33:00.644Z,97.96
2023-05-14T02:34:00.549Z,98.16
2023-05-14T02:35:00.531Z,98.16
2023-05-14T02:36:00.625Z,98.16
2023-05-14T02:37:00.548Z,98.43
2023-05-14T02:38:00.518Z,98.63
2023-05-14T02:39:00.499Z,98.33
2023-05-14T02:40:00.501Z,97.81
2023-05-14T02:41:00.483Z,97.05
2023-05-14T02:42:00.504Z,97.05
2023-05-14T02:43:00.483Z,97.15
2023-05-14T02:44:00.473Z,97.50
2023-05-14T02:45:00.462Z,98.58
2023-05-14T02:46:00.444Z,98.16
2023-05-14T02:47:00.561Z,98.58
2023-05-14T02:48:00.475Z,98.58
2023-05-14T02:49:00.444Z,98.79
2023-05-14T02:50:00.419Z,98.79
2023-05-14T02:51:00.412Z,98.58
2023-05-14T02:52:00.434Z,98.37
2023-05-14T02:53:00.398Z,98.47
2023-05-14T02:54:00.385Z,98.68
2023-05-14T02:55:00.393Z,98.58
2023-05-14T02:56:00.386Z,98.58
2023-05-14T02:57:00.394Z,98.63
2023-05-14T02:58:00.355Z,98.02
2023-05-14T02:59:01.351Z,98.27
2023-05-14T03:00:00.346Z,98.02
2023-05-14T03:01:00.394Z,98.16
2023-05-14T03:02:00.377Z,98.22
2023-05-14T03:03:00.358Z,98.22
2023-05-14T03:04:00.320Z,98.43
2023-05-14T03:05:00.293Z,98.27
2023-05-14T03:06:01.322Z,98.27
2023-05-14T03:07:00.311Z,98.02
2023-05-14T03:08:00.276Z,98.12
2023-05-14T03:09:00.267Z,97.87
2023-05-14T03:10:00.316Z,97.91
2023-05-14T03:11:00.287Z,97.71
2023-05-14T03:12:00.258Z,98.07
2023-05-14T03:13:00.285Z,97.97
2023-05-14T03:14:00.235Z,97.81
2023-05-14T03:15:00.228Z,97.40
2023-05-14T03:16:00.242Z,97.19
2023-05-14T03:17:00.240Z,96.89
2023-05-14T03:18:00.230Z,96.37
2023-05-14T03:19:00.262Z,96.62
2023-05-14T03:20:00.213Z,96.83
2023-05-14T03:21:00.202Z,96.93
2023-05-14T03:22:00.180Z,96.62
2023-05-14T03:23:00.169Z,97.65
2023-05-14T03:24:00.156Z,97.55
2023-05-14T03:25:00.173Z,97.14
2023-05-14T03:26:00.159Z,97.49
2023-05-14T03:27:00.137Z,98.62
2023-05-14T03:28:00.136Z,98.42
2023-05-14T03:29:00.148Z,98.32
2023-05-14T03:30:00.209Z,98.11
2023-05-14T03:31:00.155Z,98.37
2023-05-14T03:32:00.120Z,98.47
2023-05-14T03:33:00.239Z,98.58
2023-05-14T03:34:00.180Z,98.88
2023-05-14T03:35:00.111Z,98.58
2023-05-14T03:36:00.077Z,98.47
2023-05-14T03:37:00.062Z,98.68
2023-05-14T03:38:00.063Z,98.88
2023-05-14T03:39:00.097Z,98.93
2023-05-14T03:40:00.054Z,98.68
2023-05-14T03:41:00.046Z,98.16
2023-05-14T03:42:00.032Z,98.62
2023-05-14T03:43:00.015Z,98.42
2023-05-14T03:44:00.047Z,99.14
2023-05-14T03:45:00.000Z,98.88
2023-05-14T03:45:59.997Z,98.68
2023-05-14T03:46:59.982Z,99.09
2023-05-14T03:48:00.047Z,98.74
2023-05-14T03:49:00.028Z,98.53
2023-05-14T03:49:59.957Z,98.43
2023-05-14T03:50:59.950Z,98.63
2023-05-14T03:51:59.936Z,98.33
2023-05-14T03:52:59.951Z,98.12
2023-05-14T03:53:59.919Z,98.07
2023-05-14T03:54:59.920Z,98.18
2023-05-14T03:55:59.921Z,98.49
2023-05-14T03:56:59.897Z,98.49
2023-05-14T03:57:59.942Z,97.87
2023-05-14T03:58:59.882Z,97.36
2023-05-14T03:59:59.893Z,97.56
2023-05-14T04:00:59.875Z,97.36
2023-05-14T04:01:59.960Z,97.15
2023-05-14T04:03:00.008Z,97.15
2023-05-14T04:03:59.934Z,96.73
2023-05-14T04:04:59.872Z,96.84
2023-05-14T04:05:59.898Z,97.25
2023-05-14T04:06:59.926Z,96.84
2023-05-14T04:07:59.864Z,97.15
2023-05-14T04:08:59.929Z,97.56
2023-05-14T04:10:00.702Z,97.36
2023-05-14T04:10:59.803Z,97.20
2023-05-14T04:11:59.808Z,97.41
2023-05-14T04:12:59.774Z,96.95
2023-05-14T04:13:59.765Z,96.35
2023-05-14T04:14:59.772Z,94.98
2023-05-14T04:15:59.817Z,93.90
2023-05-14T04:17:00.458Z,93.71
2023-05-14T04:17:59.767Z,91.56
2023-05-14T04:18:59.752Z,90.91
2023-05-14T04:19:59.734Z,90.03
2023-05-14T04:20:59.736Z,89.78
2023-05-14T04:21:59.750Z,90.56
2023-05-14T04:22:59.696Z,89.12
2023-05-14T04:23:59.685Z,88.86
2023-05-14T04:24:59.685Z,88.90
2023-05-14T04:25:59.725Z,89.87
2023-05-14T04:26:59.687Z,89.87
2023-05-14T04:27:59.686Z,90.89
2023-05-14T04:28:59.644Z,90.69
2023-05-14T04:29:59.648Z,90.99
2023-05-14T04:30:59.657Z,90.73
2023-05-14T04:31:59.752Z,91.59
2023-05-14T04:32:59.648Z,92.41
2023-05-14T04:33:59.605Z,92.82
2023-05-14T04:34:59.608Z,92.93
2023-05-14T04:35:59.617Z,93.59
2023-05-14T04:36:59.596Z,94.30
2023-05-14T04:37:59.582Z,94.10
2023-05-14T04:38:59.572Z,94.61
2023-05-14T04:39:59.579Z,93.99
2023-05-14T04:40:59.578Z,94.30
2023-05-14T04:41:59.568Z,96.04
2023-05-14T04:42:59.651Z,95.89
2023-05-14T04:43:59.529Z,95.23
2023-05-14T04:44:59.550Z,94.92
2023-05-14T04:45:59.539Z,94.96
2023-05-14T04:46:59.507Z,95.78
2023-05-14T04:47:59.596Z,95.47
2023-05-14T04:48:59.507Z,96.30
2023-05-14T04:49:59.514Z,95.47
2023-05-14T04:50:59.477Z,96.15
2023-05-14T04:51:59.472Z,95.74
2023-05-14T04:52:59.463Z,95.94
2023-05-14T04:53:59.473Z,95.84
2023-05-14T04:54:59.457Z,95.74
2023-05-14T04:56:00.438Z,95.12
2023-05-14T04:56:59.435Z,95.43
2023-05-14T04:57:59.422Z,95.64
2023-05-14T04:58:59.410Z,95.94
2023-05-14T04:59:59.424Z,96.15
2023-05-14T05:00:59.446Z,96.00
2023-05-14T05:01:59.391Z,96.00
2023-05-14T05:02:59.477Z,96.00
2023-05-14T05:03:59.456Z,95.95
2023-05-14T05:04:59.404Z,95.79
2023-05-14T05:05:59.370Z,95.44
2023-05-14T05:06:59.359Z,94.93
2023-05-14T05:07:59.362Z,95.24
2023-05-14T05:09:00.608Z,95.14
2023-05-14T05:09:59.356Z,95.03
2023-05-14T05:10:59.323Z,94.07
2023-05-14T05:11:59.330Z,93.90
2023-05-14T05:12:59.315Z,93.96
2023-05-14T05:13:59.333Z,94.07
2023-05-14T05:14:59.304Z,94.48
2023-05-14T05:15:59.354Z,94.48
2023-05-14T05:16:59.287Z,93.96
2023-05-14T05:17:59.338Z,94.17
2023-05-14T05:18:59.337Z,94.54
2023-05-14T05:19:59.262Z,94.02
2023-05-14T05:20:59.247Z,94.43
2023-05-14T05:21:59.247Z,94.02
2023-05-14T05:22:59.228Z,93.00
2023-05-14T05:23:59.242Z,92.90
2023-05-14T05:25:00.232Z,92.69
2023-05-14T05:25:59.209Z,92.43
2023-05-14T05:26:59.196Z,92.63
2023-05-14T05:27:59.222Z,92.53
2023-05-14T05:28:59.210Z,92.74
2023-05-14T05:29:59.173Z,93.35
2023-05-14T05:30:59.195Z,93.55
2023-05-14T05:31:59.193Z,93.10
2023-05-14T05:32:59.265Z,93.76
2023-05-14T05:33:59.168Z,94.17
2023-05-14T05:34:59.157Z,93.66
2023-05-14T05:35:59.134Z,94.43
2023-05-14T05:36:59.117Z,93.82
2023-05-14T05:38:01.137Z,93.67
2023-05-14T05:38:59.112Z,93.30
2023-05-14T05:39:59.103Z,93.41
2023-05-14T05:40:59.096Z,94.08
2023-05-14T05:41:59.117Z,92.96
2023-05-14T05:42:59.113Z,92.60
2023-05-14T05:43:59.078Z,92.50
2023-05-14T05:44:59.060Z,91.44
2023-05-14T05:45:59.093Z,91.13
2023-05-14T05:47:31.052Z,90.72
2023-05-14T05:47:59.163Z,91.33
2023-05-14T05:48:59.038Z,91.95
2023-05-14T05:49:59.022Z,92.01
2023-05-14T05:50:59.021Z,90.78
2023-05-14T05:51:59.085Z,90.17
2023-05-14T05:52:59.005Z,90.78
2023-05-14T05:53:59.001Z,90.53
2023-05-14T05:54:59.000Z,90.59
2023-05-14T05:55:58.982Z,90.25
2023-05-14T05:56:59.004Z,89.02
2023-05-14T05:57:58.970Z,89.51
2023-05-14T05:58:58.966Z,90.02
2023-05-14T05:59:58.954Z,90.88
2023-05-14T06:00:58.974Z,91.96
2023-05-14T06:01:58.972Z,90.74
2023-05-14T06:02:58.975Z,90.88
2023-05-14T06:03:58.927Z,92.25
2023-05-14T06:04:58.937Z,92.83
2023-05-14T06:05:58.936Z,92.68
2023-05-14T06:06:58.897Z,91.52
2023-05-14T06:07:58.892Z,90.96
2023-05-14T06:08:58.888Z,89.94
2023-05-14T06:09:58.887Z,89.58
2023-05-14T06:10:58.908Z,90.25
2023-05-14T06:11:58.876Z,90.80
2023-05-14T06:12:58.870Z,90.55
2023-05-14T06:13:58.845Z,90.66
2023-05-14T06:14:58.841Z,90.00
2023-05-14T06:15:58.928Z,90.31
2023-05-14T06:16:58.860Z,90.98
2023-05-14T06:17:58.838Z,90.42
2023-05-14T06:18:58.861Z,89.47
2023-05-14T06:19:58.831Z,88.85
2023-05-14T06:20:58.842Z,88.45
2023-05-14T06:21:58.791Z,88.28
2023-05-14T06:22:58.779Z,89.87
2023-05-14T06:23:58.781Z,88.45
2023-05-14T06:24:58.792Z,87.73
2023-05-14T06:25:58.765Z,87.69
2023-05-14T06:26:58.759Z,88.63
2023-05-14T06:27:58.750Z,87.35
2023-05-14T06:28:58.733Z,86.80
2023-05-14T06:29:58.750Z,87.37
2023-05-14T06:30:58.715Z,86.07
2023-05-14T06:31:58.738Z,85.01
2023-05-14T06:32:58.762Z,83.38
2023-05-14T06:33:58.699Z,83.73
2023-05-14T06:34:58.710Z,85.13
2023-05-14T06:35:58.683Z,85.68
2023-05-14T06:36:58.664Z,87.20
2023-05-14T06:37:59.665Z,87.41
2023-05-14T06:38:58.684Z,85.98
2023-05-14T06:39:58.671Z,86.21
2023-05-14T06:40:58.645Z,85.55
2023-05-14T06:41:58.627Z,85.64
2023-05-14T06:42:58.623Z,83.14
2023-05-14T06:43:58.642Z,83.89
2023-05-14T06:44:58.619Z,84.05
2023-05-14T06:45:58.593Z,84.34
2023-05-14T06:46:58.589Z,84.60
2023-05-14T06:47:58.701Z,84.74
2023-05-14T06:48:59.637Z,86.10
2023-05-14T06:49:59.580Z,85.60
2023-05-14T06:50:58.549Z,85.66
2023-05-14T06:51:59.552Z,85.60
2023-05-14T06:52:58.550Z,85.39
2023-05-14T06:53:58.564Z,85.70
2023-05-14T06:54:58.529Z,86.16
2023-05-14T06:55:58.521Z,85.66
2023-05-14T06:56:58.508Z,86.37
2023-05-14T06:57:58.530Z,85.70
2023-05-14T06:58:58.526Z,86.37
2023-05-14T06:59:58.488Z,86.07
2023-05-14T07:00:58.509Z,85.38
2023-05-14T07:01:58.666Z,86.59
2023-05-14T07:02:58.517Z,86.25
2023-05-14T07:03:58.490Z,83.87
2023-05-14T07:04:58.466Z,81.27
2023-05-14T07:05:58.454Z,81.88
2023-05-14T07:06:58.443Z,82.35
2023-05-14T07:07:58.493Z,82.45
2023-05-14T07:08:58.419Z,81.71
2023-05-14T07:09:58.411Z,79.55
2023-05-14T07:10:58.410Z,82.09
2023-05-14T07:11:58.430Z,82.80
2023-05-14T07:12:58.434Z,81.27
2023-05-14T07:13:58.386Z,81.38
2023-05-14T07:14:58.374Z,81.48
2023-05-14T07:15:58.359Z,81.07
2023-05-14T07:16:58.391Z,81.48
2023-05-14T07:17:58.480Z,81.07
2023-05-14T07:18:58.452Z,81.54
2023-05-14T07:19:58.354Z,81.91
2023-05-14T07:20:58.401Z,80.76
2023-05-14T07:21:58.344Z,79.50
2023-05-14T07:22:58.312Z,77.31
2023-05-14T07:23:58.314Z,77.95
2023-05-14T07:24:58.301Z,77.51
2023-05-14T07:25:58.288Z,76.70
2023-05-14T07:26:58.331Z,77.41
2023-05-14T07:27:58.272Z,76.50
2023-05-14T07:28:58.270Z,77.65
2023-05-14T07:29:58.278Z,76.70
2023-05-14T07:30:58.356Z,77.17
2023-05-14T07:31:58.279Z,76.53
2023-05-14T07:32:58.300Z,74.81
2023-05-14T07:33:58.236Z,73.80
2023-05-14T07:34:58.225Z,74.54
2023-05-14T07:35:58.259Z,74.51
2023-05-14T07:36:58.206Z,76.43
2023-05-14T07:37:58.237Z,76.03
2023-05-14T07:38:58.195Z,77.14
2023-05-14T07:39:58.193Z,75.72
2023-05-14T07:40:58.206Z,74.40
2023-05-14T07:41:58.168Z,74.44
2023-05-14T07:42:58.185Z,75.96
2023-05-14T07:43:58.161Z,73.39
2023-05-14T07:44:58.150Z,73.09
2023-05-14T07:45:58.178Z,71.77
2023-05-14T07:46:58.155Z,72.38
2023-05-14T07:47:58.261Z,72.78
2023-05-14T07:48:58.124Z,72.28
2023-05-14T07:49:58.116Z,70.83
2023-05-14T07:50:58.129Z,72.14
2023-05-14T07:51:58.096Z,72.17
2023-05-14T07:52:58.100Z,71.91
2023-05-14T07:53:58.078Z,70.18
2023-05-14T07:54:58.127Z,72.01
2023-05-14T07:55:58.099Z,71.87
2023-05-14T07:56:58.066Z,70.39
2023-05-14T07:57:58.047Z,71.20
2023-05-14T07:58:58.044Z,71.44
2023-05-14T07:59:58.051Z,70.59
2023-05-14T08:00:58.045Z,70.69
2023-05-14T08:01:58.066Z,70.09
2023-05-14T08:02:59.279Z,71.33
2023-05-14T08:03:58.067Z,72.28
2023-05-14T08:04:57.997Z,72.08
2023-05-14T08:05:59.011Z,71.67
2023-05-14T08:06:57.992Z,70.96
2023-05-14T08:07:57.993Z,72.08
2023-05-14T08:08:58.021Z,72.17
2023-05-14T08:09:58.000Z,71.88
2023-05-14T08:10:58.036Z,71.47
2023-05-14T08:11:57.953Z,70.42
2023-05-14T08:12:57.940Z,70.73
2023-05-14T08:13:57.953Z,70.62
2023-05-14T08:14:57.947Z,71.67
2023-05-14T08:15:57.923Z,70.76
2023-05-14T08:16:57.961Z,69.71
2023-05-14T08:17:57.935Z,66.18
2023-05-14T08:18:57.911Z,67.90
2023-05-14T08:19:57.907Z,69.75
2023-05-14T08:20:57.981Z,70.76
2023-05-14T08:21:57.943Z,69.14
2023-05-14T08:22:57.869Z,68.20
2023-05-14T08:23:57.856Z,69.11
2023-05-14T08:24:57.886Z,69.95
2023-05-14T08:25:57.846Z,69.14
2023-05-14T08:26:57.848Z,69.89
2023-05-14T08:27:57.825Z,70.76
2023-05-14T08:28:57.816Z,69.04
2023-05-14T08:29:57.840Z,68.84
2023-05-14T08:30:57.877Z,67.97
2023-05-14T08:31:58.253Z,67.66
2023-05-14T08:32:57.832Z,68.77
2023-05-14T08:33:57.809Z,68.84
2023-05-14T08:34:57.814Z,67.60
2023-05-14T08:35:57.780Z,67.02
2023-05-14T08:36:57.761Z,69.55
2023-05-14T08:37:57.756Z,66.86
2023-05-14T08:38:57.783Z,65.78
2023-05-14T08:39:57.741Z,64.47
2023-05-14T08:40:57.742Z,65.48
2023-05-14T08:41:57.718Z,65.99
2023-05-14T08:42:57.731Z,66.99
2023-05-14T08:43:57.735Z,65.55
2023-05-14T08:44:57.700Z,67.07
2023-05-14T08:45:57.683Z,64.54
2023-05-14T08:46:57.687Z,65.18
2023-05-14T08:47:57.737Z,65.28
2023-05-14T08:48:57.750Z,64.64
2023-05-14T08:49:57.676Z,64.87
2023-05-14T08:50:57.650Z,66.89
2023-05-14T08:51:57.640Z,64.58
2023-05-14T08:52:57.665Z,65.99
2023-05-14T08:53:57.647Z,64.67
2023-05-14T08:54:57.625Z,65.81
2023-05-14T08:55:58.617Z,65.84
2023-05-14T08:56:57.599Z,67.23
2023-05-14T08:57:57.635Z,66.02
2023-05-14T08:58:57.584Z,63.46
2023-05-14T08:59:57.585Z,63.67
2023-05-14T09:00:57.576Z,63.76
2023-05-14T09:01:57.649Z,63.56
2023-05-14T09:02:57.655Z,64.24
2023-05-14T09:03:57.559Z,65.45
2023-05-14T09:04:57.537Z,63.53
2023-05-14T09:05:59.379Z,64.04
2023-05-14T09:06:57.593Z,64.34
2023-05-14T09:07:57.554Z,64.98
2023-05-14T09:08:57.579Z,63.53
2023-05-14T09:09:58.383Z,64.67
2023-05-14T09:10:57.501Z,63.53
2023-05-14T09:11:57.520Z,62.93
2023-05-14T09:12:57.512Z,63.30
2023-05-14T09:13:57.481Z,64.28
2023-05-14T09:14:57.486Z,62.06
2023-05-14T09:15:57.564Z,61.49
2023-05-14T09:16:57.488Z,62.90
2023-05-14T09:17:57.526Z,62.65
2023-05-14T09:18:57.512Z,63.70
2023-05-14T09:19:57.439Z,63.67
2023-05-14T09:20:57.461Z,63.56
2023-05-14T09:21:57.440Z,64.70
2023-05-14T09:22:57.433Z,65.68
2023-05-14T09:23:57.430Z,63.87
2023-05-14T09:24:58.384Z,64.58
2023-05-14T09:25:57.431Z,63.76
2023-05-14T09:26:57.367Z,64.58
2023-05-14T09:27:58.750Z,65.11
2023-05-14T09:28:58.360Z,64.43
2023-05-14T09:29:57.375Z,65.92
2023-05-14T09:30:57.626Z,63.67
2023-05-14T09:31:57.448Z,63.03
2023-05-14T09:32:57.342Z,63.39
2023-05-14T09:33:57.318Z,63.79
2023-05-14T09:34:57.362Z,65.21
2023-05-14T09:35:58.434Z,63.06
2023-05-14T09:36:57.299Z,62.43
2023-05-14T09:37:57.345Z,63.50
2023-05-14T09:38:57.433Z,63.20
2023-05-14T09:39:57.610Z,63.67
2023-05-14T09:40:57.359Z,64.61
2023-05-14T09:41:57.344Z,65.11
2023-05-14T09:42:57.850Z,64.47
2023-05-14T09:43:57.245Z,63.46
2023-05-14T09:44:57.262Z,64.30
2023-05-14T09:45:57.243Z,64.84
2023-05-14T09:46:57.211Z,63.64
2023-05-14T09:47:57.392Z,62.97
2023-05-14T09:48:57.226Z,63.98
2023-05-14T09:49:57.229Z,62.19
2023-05-14T09:50:57.188Z,63.50
2023-05-14T09:51:57.187Z,63.70
2023-05-14T09:52:57.170Z,63.60
2023-05-14T09:53:57.207Z,63.87
2023-05-14T09:54:57.157Z,63.37
2023-05-14T09:55:57.147Z,62.97
2023-05-14T09:56:57.144Z,63.14
2023-05-14T09:57:57.140Z,64.79
2023-05-14T09:58:57.150Z,63.35
2023-05-14T09:59:57.118Z,61.17
2023-05-14T10:00:57.124Z,62.01
2023-05-14T10:01:57.112Z,62.29
2023-05-14T10:02:57.189Z,63.33
2023-05-14T10:03:57.134Z,64.72
2023-05-14T10:04:57.079Z,63.90
2023-05-14T10:05:57.084Z,64.72
2023-05-14T10:06:57.081Z,63.40
2023-05-14T10:07:57.109Z,65.01
2023-05-14T10:08:57.062Z,63.92
2023-05-14T10:09:58.233Z,61.93
2023-05-14T10:10:57.028Z,63.27
2023-05-14T10:11:57.023Z,63.47
2023-05-14T10:12:57.045Z,62.80
2023-05-14T10:13:57.007Z,64.54
2023-05-14T10:14:57.064Z,65.45
2023-05-14T10:15:56.993Z,64.78
2023-05-14T10:16:57.056Z,64.98
2023-05-14T10:17:57.106Z,64.50
2023-05-14T10:18:57.633Z,65.61
2023-05-14T10:19:57.966Z,63.79
2023-05-14T10:20:56.952Z,65.21
2023-05-14T10:21:57.008Z,64.78
2023-05-14T10:22:56.976Z,65.21
2023-05-14T10:23:56.936Z,64.17
2023-05-14T10:24:56.937Z,63.96
2023-05-14T10:25:56.928Z,64.27
2023-05-14T10:26:56.949Z,63.93
2023-05-14T10:27:56.917Z,65.12
2023-05-14T10:28:56.902Z,63.65
2023-05-14T10:29:56.964Z,64.42
2023-05-14T10:30:56.945Z,62.88
2023-05-14T10:31:56.967Z,62.57
2023-05-14T10:32:56.910Z,62.29
2023-05-14T10:33:59.732Z,63.00
2023-05-14T10:34:56.855Z,61.89
2023-05-14T10:35:56.880Z,60.88
2023-05-14T10:36:56.865Z,61.18
2023-05-14T10:37:56.840Z,60.58
2023-05-14T10:38:56.824Z,61.16
2023-05-14T10:39:56.819Z,60.35
2023-05-14T10:40:56.858Z,60.52
2023-05-14T10:41:56.798Z,60.25
2023-05-14T10:42:56.793Z,60.83
2023-05-14T10:43:56.789Z,59.76
2023-05-14T10:44:56.803Z,58.70
2023-05-14T10:45:56.802Z,58.09
2023-05-14T10:46:56.881Z,60.64
2023-05-14T10:47:56.814Z,59.00
2023-05-14T10:48:56.756Z,58.53
2023-05-14T10:49:56.740Z,57.95
2023-05-14T10:50:56.846Z,59.76
2023-05-14T10:51:56.721Z,58.95
2023-05-14T10:52:56.717Z,58.88
2023-05-14T10:53:56.712Z,59.62
2023-05-14T10:54:56.722Z,58.95
2023-05-14T10:55:56.723Z,58.02
2023-05-14T10:56:56.685Z,56.59
2023-05-14T10:57:56.687Z,58.22
2023-05-14T10:58:56.683Z,57.65
2023-05-14T10:59:56.693Z,59.48
2023-05-14T11:00:56.654Z,60.15
2023-05-14T11:01:56.700Z,61.25
2023-05-14T11:02:56.759Z,60.22
2023-05-14T11:03:56.660Z,60.05
2023-05-14T11:04:56.657Z,60.25
2023-05-14T11:05:56.616Z,60.32
2023-05-14T11:06:56.609Z,60.25
2023-05-14T11:07:56.603Z,61.83
2023-05-14T11:08:56.600Z,60.05
2023-05-14T11:09:56.617Z,60.12
2023-05-14T11:10:56.585Z,60.98
2023-05-14T11:11:56.573Z,62.80
2023-05-14T11:12:56.562Z,62.64
2023-05-14T11:13:56.594Z,61.50
2023-05-14T11:14:56.572Z,61.17
2023-05-14T11:15:56.633Z,59.66
2023-05-14T11:16:56.590Z,61.87
2023-05-14T11:17:56.662Z,60.49
2023-05-14T11:18:56.584Z,59.92
2023-05-14T11:19:56.523Z,60.52
2023-05-14T11:20:56.513Z,60.25
2023-05-14T11:21:56.501Z,60.93
2023-05-14T11:22:56.491Z,59.75
2023-05-14T11:23:56.538Z,58.94
2023-05-14T11:24:56.506Z,58.34
2023-05-14T11:25:56.483Z,59.01
2023-05-14T11:26:56.465Z,59.52
2023-05-14T11:27:56.486Z,60.42
2023-05-14T11:28:56.476Z,61.03
2023-05-14T11:29:56.449Z,61.13
2023-05-14T11:30:56.437Z,60.93
2023-05-14T11:31:56.486Z,60.55
2023-05-14T11:32:56.487Z,61.03
2023-05-14T11:33:56.424Z,61.53
2023-05-14T11:34:56.409Z,60.96
2023-05-14T11:35:56.406Z,61.25
2023-05-14T11:36:56.395Z,60.65
2023-05-14T11:37:56.422Z,59.55
2023-05-14T11:38:56.382Z,58.11
2023-05-14T11:39:56.375Z,56.67
2023-05-14T11:40:56.365Z,57.95
2023-05-14T11:41:56.393Z,60.16
2023-05-14T11:42:56.371Z,58.88
2023-05-14T11:43:56.341Z,59.39
2023-05-14T11:44:56.341Z,59.99
2023-05-14T11:45:56.379Z,59.28
2023-05-14T11:47:28.298Z,59.26
2023-05-14T11:47:56.345Z,58.45
2023-05-14T11:48:56.310Z,59.03
2023-05-14T11:49:56.309Z,60.41
2023-05-14T11:50:56.303Z,58.12
2023-05-14T11:51:56.318Z,57.22
2023-05-14T11:52:56.292Z,57.90
2023-05-14T11:53:56.269Z,57.22
2023-05-14T11:54:56.266Z,57.45
2023-05-14T11:55:56.260Z,57.75
2023-05-14T11:56:56.273Z,57.92
2023-05-14T11:57:56.248Z,57.70
2023-05-14T11:58:56.248Z,57.90
2023-05-14T11:59:56.232Z,55.66
2023-05-14T12:00:57.257Z,57.97
2023-05-14T12:01:56.230Z,57.14
2023-05-14T12:02:56.315Z,58.84
2023-05-14T12:03:56.259Z,57.11
2023-05-14T12:04:56.203Z,59.45
2023-05-14T12:05:56.220Z,56.84
2023-05-14T12:06:56.173Z,58.40
2023-05-14T12:07:56.177Z,58.09
2023-05-14T12:08:56.153Z,59.03
2023-05-14T12:09:56.149Z,59.13
2023-05-14T12:10:56.178Z,60.16
2023-05-14T12:11:56.138Z,58.68
2023-05-14T12:12:56.122Z,58.78
2023-05-14T12:13:56.108Z,58.98
2023-05-14T12:14:56.121Z,58.18
2023-05-14T12:15:56.169Z,58.38
2023-05-14T12:16:56.086Z,56.87
2023-05-14T12:17:56.145Z,58.05
2023-05-14T12:18:56.125Z,57.24
2023-05-14T12:19:56.114Z,57.85
2023-05-14T12:20:56.060Z,56.92
2023-05-14T12:21:56.047Z,58.42
2023-05-14T12:22:56.049Z,57.45
2023-05-14T12:23:56.059Z,59.33
2023-05-14T12:24:56.073Z,58.90
2023-05-14T12:25:56.041Z,58.00
2023-05-14T12:26:56.021Z,58.70
2023-05-14T12:27:56.009Z,58.22
2023-05-14T12:28:56.023Z,58.42
2023-05-14T12:29:56.294Z,56.92
2023-05-14T12:30:55.989Z,59.13
2023-05-14T12:31:56.038Z,57.22
2023-05-14T12:32:56.099Z,57.32
2023-05-14T12:33:55.987Z,58.15
2023-05-14T12:34:55.955Z,59.06
2023-05-14T12:35:56.201Z,58.48
2023-05-14T12:36:55.945Z,59.06
2023-05-14T12:37:55.967Z,58.65
2023-05-14T12:38:55.951Z,58.18
2023-05-14T12:39:55.934Z,58.78
2023-05-14T12:40:55.924Z,59.08
2023-05-14T12:41:55.906Z,57.78
2023-05-14T12:42:56.895Z,58.48
2023-05-14T12:43:56.911Z,58.48
2023-05-14T12:44:56.897Z,58.18
2023-05-14T12:45:55.882Z,58.28
2023-05-14T12:46:55.925Z,58.35
2023-05-14T12:47:55.888Z,57.55
2023-05-14T12:48:55.920Z,57.55
2023-05-14T12:49:55.856Z,58.02
2023-05-14T12:50:55.842Z,58.73
2023-05-14T12:52:07.691Z,57.62